Aeroporto :
LOGIN :

Iscrizione | Disclaimer

   EN    FR    IT 

 










Sommario :    VFR   VFR Marginale   IFR   IFR Intensivo   IFR Molto Intensivo
Visibilità : 
Base nubi : 
>= 8 km
>= 3000ft
5 / 8 km
1000 / 3000 ft
1500m / 5 km
500 / 1000 ft
800 / 1500m
200 / 500 ft
< 800m
< 200 ft
Simboli :   Temporali  Nebbia  Neve Forte  Precipitazioni Forti  Vento > 20 kt
SIGMETs :   Varie  Temporali  Ghiacco  Turbolenza  Onda orograficha  Ceneri Vulcaniche






- Altitudine del aeroporto : 2096 ft
- Codice IATA : AUR


LFLW - Aurillac

ULTIMO METAR :
  • 271000Z AUTO 27012KT 230V300 9999 SCT016 BKN021 BKN028 10/07 Q1012 NOSIG

METARs OBSOLETI :
  • 270930Z AUTO 26008KT 220V320 9999 SCT015 BKN032 OVC045 10/07 Q1012 NOSIG
  • 270900Z AUTO 28008KT 250V320 9999 BKN013 BKN019 OVC046 10/07 Q1012 BECMG BKN025
  • 270830Z AUTO 28007KT 240V320 9999 FEW009 BKN013 BKN020 10/08 Q1012 BECMG BKN025
  • 270800Z AUTO 28008KT 240V320 9999 BKN010 BKN019 OVC046 10/08 Q1012 BECMG BKN025
  • 270730Z AUTO 29006KT 250V320 9999 BKN007 BKN013 OVC019 10/08 Q1011 BECMG BKN025

TAF TAF LFLW
Valido dal 27 a 09 ore il 27 a 18 ore UTC


270800Z 2709/2718 28010KT 9999 BKN025
PROB40
TEMPO 2712/2718 SHRA SCT023TCU



MetMap, La meteo Aeronautica in un colpo d'occhio ! - Copyright ORBIFLY Dicembre 2007 - Disclaimer

ORBIFLY MET'MAP TEAM :

Programmazione e sviluppo : Alexandra Zaïnal
Concezione : Baudouin d'Aumeries
Supporto tecnico e logistico : Manuel Goepfert
Aiuto : Marc-Olivier Méhu
Aiuto per la traduzione : Arnaldo La Scala




FONTI E CREDITI :

   NOAA